createdAt,value
2018-11-12T00:00:35.387Z,5.60
2018-11-12T00:01:40.393Z,3.70
2018-11-12T00:02:45.821Z,4.17
2018-11-12T00:03:50.078Z,4.85
2018-11-12T00:04:56.252Z,5.67
2018-11-12T00:06:00.537Z,5.47
2018-11-12T00:07:05.277Z,4.37
2018-11-12T00:08:09.661Z,7.83
2018-11-12T00:09:13.935Z,5.35
2018-11-12T00:10:18.289Z,5.75
2018-11-12T00:11:22.497Z,7.60
2018-11-12T00:12:26.788Z,7.50
2018-11-12T00:13:31.004Z,9.78
2018-11-12T00:14:36.010Z,11.03
2018-11-12T00:15:40.252Z,8.93
2018-11-12T00:16:44.964Z,11.35
2018-11-12T00:17:49.453Z,8.48
2018-11-12T00:18:53.666Z,7.85
2018-11-12T00:19:57.879Z,8.25
2018-11-12T00:21:02.194Z,8.95
2018-11-12T00:22:07.782Z,12.90
2018-11-12T00:23:12.803Z,12.28
2018-11-12T00:24:17.150Z,10.50
2018-11-12T00:25:21.345Z,9.58
2018-11-12T00:26:25.813Z,11.90
2018-11-12T00:27:30.771Z,7.55
2018-11-12T00:28:35.024Z,7.87
2018-11-12T00:29:42.918Z,8.78
2018-11-12T00:30:47.111Z,9.40
2018-11-12T00:31:51.567Z,15.60
2018-11-12T00:32:58.065Z,8.90
2018-11-12T00:34:03.364Z,9.20
2018-11-12T00:35:09.093Z,8.40
2018-11-12T00:36:13.354Z,8.55
2018-11-12T00:37:17.637Z,8.15
2018-11-12T00:38:22.855Z,10.08
2018-11-12T00:39:27.165Z,8.88
2018-11-12T00:40:31.935Z,13.28
2018-11-12T00:41:36.208Z,12.80
2018-11-12T00:42:41.219Z,13.13
2018-11-12T00:43:45.726Z,19.42
2018-11-12T00:44:50.421Z,15.25
2018-11-12T00:45:54.974Z,14.87
2018-11-12T00:46:59.208Z,15.55
2018-11-12T00:48:03.551Z,15.50
2018-11-12T00:49:08.249Z,18.75
2018-11-12T00:50:17.804Z,16.90
2018-11-12T00:51:25.046Z,17.50
2018-11-12T00:52:29.549Z,17.55
2018-11-12T00:53:33.811Z,18.05
2018-11-12T00:54:38.221Z,11.97
2018-11-12T00:55:42.623Z,10.08
2018-11-12T00:56:46.896Z,9.13
2018-11-12T00:57:51.227Z,6.55
2018-11-12T00:58:55.435Z,8.53
2018-11-12T00:59:59.638Z,5.40
2018-11-12T01:01:04.360Z,4.40
2018-11-12T01:02:14.253Z,4.37
2018-11-12T01:03:18.499Z,5.50
2018-11-12T01:04:23.219Z,6.12
2018-11-12T01:05:27.427Z,6.40
2018-11-12T01:06:31.981Z,5.08
2018-11-12T01:07:36.660Z,7.62
2018-11-12T01:08:41.106Z,6.20
2018-11-12T01:09:45.375Z,7.55
2018-11-12T01:10:49.868Z,7.70
2018-11-12T01:11:55.010Z,8.93
2018-11-12T01:12:59.902Z,11.83
2018-11-12T01:14:04.381Z,7.35
2018-11-12T01:15:11.103Z,6.85
2018-11-12T01:16:15.534Z,3.80
2018-11-12T01:17:20.052Z,3.90
2018-11-12T01:18:24.523Z,6.47
2018-11-12T01:19:28.753Z,5.40
2018-11-12T01:20:33.268Z,4.50
2018-11-12T01:21:37.512Z,2.90
2018-11-12T01:22:41.784Z,8.48
2018-11-12T01:23:45.947Z,5.37
2018-11-12T01:24:50.358Z,3.17
2018-11-12T01:25:54.750Z,3.98
2018-11-12T01:27:00.037Z,3.80
2018-11-12T01:28:04.262Z,4.90
2018-11-12T01:29:08.544Z,3.33
2018-11-12T01:30:15.258Z,7.83
2018-11-12T01:31:19.421Z,8.13
2018-11-12T01:32:23.811Z,8.98
2018-11-12T01:33:28.709Z,7.30
2018-11-12T01:34:33.357Z,8.68
2018-11-12T01:35:37.537Z,7.37
2018-11-12T01:36:41.697Z,8.85
2018-11-12T01:37:45.993Z,7.30
2018-11-12T01:38:50.250Z,4.67
2018-11-12T01:39:54.488Z,5.37
2018-11-12T01:40:58.741Z,4.83
2018-11-12T01:42:03.380Z,5.60
2018-11-12T01:43:08.851Z,3.87
2018-11-12T01:44:13.493Z,9.35
2018-11-12T01:45:20.164Z,6.62
2018-11-12T01:46:25.019Z,7.08
2018-11-12T01:47:29.220Z,5.85
2018-11-12T01:48:33.459Z,6.80
2018-11-12T01:49:37.657Z,7.62
2018-11-12T01:50:42.071Z,8.65
2018-11-12T01:51:46.304Z,11.25
2018-11-12T01:52:50.546Z,13.38
2018-11-12T01:53:54.743Z,10.65
2018-11-12T01:54:58.898Z,19.73
2018-11-12T01:56:03.296Z,12.50
2018-11-12T01:57:07.492Z,14.47
2018-11-12T01:58:11.727Z,18.20
2018-11-12T01:59:15.936Z,20.40
2018-11-12T02:00:21.939Z,14.07
2018-11-12T02:01:26.564Z,11.45
2018-11-12T02:02:57.315Z,11.57
2018-11-12T02:04:21.454Z,12.13
2018-11-12T02:05:37.701Z,9.60
2018-11-12T02:08:20.618Z,8.78
2018-11-12T02:09:52.779Z,8.48
2018-11-12T02:11:18.766Z,8.05
2018-11-12T02:12:26.335Z,9.30
2018-11-12T02:13:30.866Z,8.35
2018-11-12T02:14:35.506Z,6.33
2018-11-12T02:15:39.702Z,6.95
2018-11-12T02:16:43.896Z,13.03
2018-11-12T02:17:48.854Z,8.45
2018-11-12T02:18:53.590Z,12.73
2018-11-12T02:19:58.026Z,12.88
2018-11-12T02:21:02.727Z,13.50
2018-11-12T02:22:07.292Z,16.17
2018-11-12T02:23:11.485Z,18.92
2018-11-12T02:24:15.760Z,16.70
2018-11-12T02:25:20.723Z,14.53
2018-11-12T02:26:25.878Z,16.42
2018-11-12T02:27:42.024Z,13.43
2018-11-12T02:28:47.801Z,9.00
2018-11-12T02:29:52.549Z,6.37
2018-11-12T02:30:57.821Z,4.95
2018-11-12T02:32:02.077Z,5.72
2018-11-12T02:33:06.371Z,3.58
2018-11-12T02:34:10.996Z,3.47
2018-11-12T02:35:15.202Z,4.45
2018-11-12T02:36:21.198Z,5.80
2018-11-12T02:37:25.405Z,4.60
2018-11-12T02:38:29.887Z,7.85
2018-11-12T02:39:34.245Z,10.90
2018-11-12T02:40:39.231Z,8.25
2018-11-12T02:41:43.424Z,5.35
2018-11-12T02:42:47.669Z,6.25
2018-11-12T02:43:52.146Z,7.85
2018-11-12T02:44:56.352Z,10.63
2018-11-12T02:46:00.757Z,7.55
2018-11-12T02:47:05.785Z,10.63
2018-11-12T02:48:10.014Z,9.75
2018-11-12T02:49:14.235Z,13.45
2018-11-12T02:50:19.033Z,15.85
2018-11-12T02:51:23.537Z,14.85
2018-11-12T02:52:28.446Z,13.55
2018-11-12T02:53:32.888Z,13.88
2018-11-12T02:54:37.082Z,14.45
2018-11-12T02:55:41.702Z,10.38
2018-11-12T02:56:45.897Z,8.13
2018-11-12T02:57:50.310Z,9.05
2018-11-12T02:58:54.526Z,6.95
2018-11-12T02:59:58.951Z,6.55
2018-11-12T03:01:40.147Z,6.00
2018-11-12T03:02:44.812Z,7.80
2018-11-12T03:03:49.026Z,5.47
2018-11-12T03:04:53.636Z,5.50
2018-11-12T03:05:57.852Z,8.43
2018-11-12T03:07:02.136Z,4.78
2018-11-12T03:08:06.686Z,5.05
2018-11-12T03:09:12.739Z,4.72
2018-11-12T03:10:24.159Z,6.75
2018-11-12T03:11:28.396Z,9.58
2018-11-12T03:12:32.985Z,9.65
2018-11-12T03:13:37.377Z,7.65
2018-11-12T03:14:41.575Z,6.47
2018-11-12T03:15:45.823Z,9.18
2018-11-12T03:16:50.867Z,11.10
2018-11-12T03:17:55.403Z,10.45
2018-11-12T03:18:59.835Z,19.87
2018-11-12T03:20:04.533Z,15.80
2018-11-12T03:21:08.734Z,16.05
2018-11-12T03:22:13.421Z,19.20
2018-11-12T03:23:18.124Z,12.95
2018-11-12T03:24:22.623Z,11.38
2018-11-12T03:25:27.035Z,10.88
2018-11-12T03:26:31.303Z,10.98
2018-11-12T03:27:35.615Z,9.93
2018-11-12T03:28:40.268Z,13.13
2018-11-12T03:29:44.463Z,14.65
2018-11-12T03:30:48.683Z,14.43
2018-11-12T03:31:53.466Z,18.92
2018-11-12T03:32:57.730Z,12.20
2018-11-12T03:34:02.093Z,8.98
2018-11-12T03:35:07.247Z,9.78
2018-11-12T03:36:11.656Z,7.92
2018-11-12T03:37:15.936Z,11.65
2018-11-12T03:38:20.283Z,7.58
2018-11-12T03:39:24.722Z,7.87
2018-11-12T03:40:30.331Z,7.17
2018-11-12T03:41:34.756Z,8.98
2018-11-12T03:42:39.037Z,6.85
2018-11-12T03:43:43.259Z,11.03
2018-11-12T03:44:47.452Z,14.55
2018-11-12T03:45:52.091Z,10.23
2018-11-12T03:46:56.354Z,7.50
2018-11-12T03:48:02.100Z,7.55
2018-11-12T03:49:06.371Z,11.33
2018-11-12T03:50:13.183Z,12.15
2018-11-12T03:51:18.755Z,5.50
2018-11-12T03:52:23.313Z,4.78
2018-11-12T03:53:27.996Z,8.90
2018-11-12T03:54:32.204Z,6.30
2018-11-12T03:55:37.291Z,9.28
2018-11-12T03:56:42.718Z,19.52
2018-11-12T03:57:48.164Z,20.65
2018-11-12T03:58:52.364Z,16.40
2018-11-12T03:59:56.857Z,20.40
2018-11-12T04:01:01.128Z,17.95
2018-11-12T04:02:05.966Z,20.52
2018-11-12T04:03:10.203Z,35.08
2018-11-12T04:04:16.364Z,34.43
2018-11-12T04:05:20.629Z,29.48
2018-11-12T04:06:25.342Z,21.48
2018-11-12T04:07:29.567Z,21.48
2018-11-12T04:08:34.956Z,12.78
2018-11-12T04:09:39.328Z,13.72
2018-11-12T04:10:43.556Z,11.50
2018-11-12T04:11:48.056Z,21.87
2018-11-12T04:12:52.316Z,10.50
2018-11-12T04:13:56.888Z,14.13
2018-11-12T04:15:01.109Z,10.90
2018-11-12T04:16:05.801Z,8.93
2018-11-12T04:17:10.048Z,21.02
2018-11-12T04:18:14.252Z,14.95
2018-11-12T04:19:18.496Z,10.55
2018-11-12T04:20:24.094Z,9.88
2018-11-12T04:21:28.276Z,8.68
2018-11-12T04:22:32.472Z,5.40
2018-11-12T04:23:36.673Z,6.67
2018-11-12T04:24:40.908Z,7.30
2018-11-12T04:25:45.169Z,8.38
2018-11-12T04:26:49.756Z,8.75
2018-11-12T04:27:54.799Z,8.48
2018-11-12T04:28:59.296Z,7.95
2018-11-12T04:30:03.877Z,7.87
2018-11-12T04:31:08.268Z,7.55
2018-11-12T04:32:13.217Z,9.10
2018-11-12T04:33:17.421Z,6.97
2018-11-12T04:34:21.918Z,7.33
2018-11-12T04:35:26.163Z,8.23
2018-11-12T04:36:30.333Z,7.10
2018-11-12T04:37:34.636Z,8.65
2018-11-12T04:38:39.128Z,8.40
2018-11-12T04:39:43.365Z,9.78
2018-11-12T04:40:47.603Z,7.22
2018-11-12T04:41:52.160Z,5.78
2018-11-12T04:42:56.408Z,9.83
2018-11-12T04:44:00.626Z,13.58
2018-11-12T04:45:05.102Z,6.33
2018-11-12T04:46:09.282Z,8.88
2018-11-12T04:47:13.691Z,8.48
2018-11-12T04:48:17.892Z,13.32
2018-11-12T04:49:22.475Z,7.92
2018-11-12T04:50:27.862Z,7.08
2018-11-12T04:51:32.416Z,4.97
2018-11-12T04:52:37.639Z,6.95
2018-11-12T04:53:41.910Z,6.00
2018-11-12T04:54:48.257Z,6.45
2018-11-12T04:55:52.453Z,4.70
2018-11-12T04:56:56.695Z,7.47
2018-11-12T04:58:00.884Z,7.22
2018-11-12T04:59:05.292Z,5.22
2018-11-12T05:00:12.419Z,4.53
2018-11-12T05:01:17.228Z,5.55
2018-11-12T05:02:21.564Z,8.23
2018-11-12T05:03:25.815Z,4.65
2018-11-12T05:04:30.105Z,6.37
2018-11-12T05:05:34.340Z,9.60
2018-11-12T05:06:38.546Z,10.25
2018-11-12T05:07:43.280Z,6.90
2018-11-12T05:08:47.494Z,8.60
2018-11-12T05:09:51.730Z,7.72
2018-11-12T05:10:56.417Z,14.10
2018-11-12T05:12:00.770Z,5.37
2018-11-12T05:13:05.500Z,5.90
2018-11-12T05:14:10.242Z,5.72
2018-11-12T05:15:16.124Z,8.10
2018-11-12T05:16:20.421Z,8.25
2018-11-12T05:17:25.616Z,8.50
2018-11-12T05:18:29.787Z,6.50
2018-11-12T05:19:34.112Z,6.20
2018-11-12T05:20:38.463Z,4.60
2018-11-12T05:21:42.663Z,5.58
2018-11-12T05:22:46.885Z,5.37
2018-11-12T05:23:51.097Z,5.80
2018-11-12T05:24:55.353Z,6.30
2018-11-12T05:25:59.653Z,4.05
2018-11-12T05:27:03.931Z,19.23
2018-11-12T05:28:08.265Z,5.20
2018-11-12T05:29:12.950Z,5.60
2018-11-12T05:30:19.267Z,6.62
2018-11-12T05:31:23.471Z,5.33
2018-11-12T05:32:27.656Z,7.20
2018-11-12T05:33:31.820Z,5.85
2018-11-12T05:34:36.219Z,12.37
2018-11-12T05:35:40.521Z,13.35
2018-11-12T05:36:44.736Z,10.10
2018-11-12T05:37:49.001Z,11.45
2018-11-12T05:38:53.253Z,10.50
2018-11-12T05:39:57.448Z,8.98
2018-11-12T05:41:02.016Z,10.32
2018-11-12T05:42:06.554Z,12.03
2018-11-12T05:43:10.762Z,13.28
2018-11-12T05:44:14.954Z,12.88
2018-11-12T05:45:20.144Z,10.03
2018-11-12T05:46:25.863Z,8.45
2018-11-12T05:47:30.131Z,6.25
2018-11-12T05:48:34.364Z,11.50
2018-11-12T05:49:39.070Z,8.95
2018-11-12T05:50:45.573Z,10.35
2018-11-12T05:51:50.986Z,10.50
2018-11-12T05:52:57.959Z,7.37
2018-11-12T05:54:03.272Z,11.73
2018-11-12T05:55:09.447Z,6.65
2018-11-12T05:56:13.657Z,12.93
2018-11-12T05:57:17.929Z,14.75
2018-11-12T05:58:22.408Z,13.48
2018-11-12T05:59:26.763Z,13.62
2018-11-12T06:00:33.950Z,11.40
2018-11-12T06:01:38.247Z,8.68
2018-11-12T06:02:43.062Z,12.75
2018-11-12T06:03:49.639Z,13.72
2018-11-12T06:04:54.859Z,8.18
2018-11-12T06:05:59.512Z,7.05
2018-11-12T06:07:05.225Z,12.73
2018-11-12T06:08:09.717Z,13.83
2018-11-12T06:09:15.370Z,9.55
2018-11-12T06:10:20.826Z,8.40
2018-11-12T06:11:25.417Z,10.23
2018-11-12T06:12:29.852Z,12.45
2018-11-12T06:13:34.106Z,7.40
2018-11-12T06:14:38.455Z,9.98
2018-11-12T06:15:43.258Z,11.60
2018-11-12T06:16:48.413Z,8.13
2018-11-12T06:17:53.250Z,8.28
2018-11-12T06:18:57.546Z,10.63
2018-11-12T06:20:01.905Z,7.45
2018-11-12T06:21:06.925Z,7.12
2018-11-12T06:22:11.187Z,8.33
2018-11-12T06:23:15.869Z,8.43
2018-11-12T06:24:20.370Z,9.13
2018-11-12T06:25:25.873Z,10.10
2018-11-12T06:26:30.295Z,10.08
2018-11-12T06:27:34.747Z,7.80
2018-11-12T06:28:39.326Z,7.75
2018-11-12T06:29:43.592Z,12.50
2018-11-12T06:30:47.892Z,6.70
2018-11-12T06:31:52.201Z,9.55
2018-11-12T06:32:58.925Z,7.58
2018-11-12T06:34:03.548Z,8.53
2018-11-12T06:35:09.224Z,9.65
2018-11-12T06:36:13.561Z,7.78
2018-11-12T06:37:18.747Z,9.63
2018-11-12T06:38:23.179Z,6.05
2018-11-12T06:39:27.796Z,6.95
2018-11-12T06:40:32.669Z,8.03
2018-11-12T06:41:37.520Z,8.20
2018-11-12T06:42:41.958Z,9.58
2018-11-12T06:43:47.966Z,9.90
2018-11-12T06:44:56.167Z,9.63
2018-11-12T06:46:00.644Z,9.63
2018-11-12T06:47:05.715Z,9.30
2018-11-12T06:48:10.916Z,8.23
2018-11-12T06:49:15.427Z,7.22
2018-11-12T06:50:21.751Z,10.72
2018-11-12T06:51:26.477Z,9.60
2018-11-12T06:52:30.783Z,11.05
2018-11-12T06:53:35.373Z,7.30
2018-11-12T06:54:39.566Z,7.90
2018-11-12T06:55:44.720Z,6.03
2018-11-12T06:56:49.245Z,9.08
2018-11-12T06:57:54.609Z,8.68
2018-11-12T06:58:59.185Z,8.00
2018-11-12T07:00:04.551Z,9.25
2018-11-12T07:01:08.877Z,9.43
2018-11-12T07:02:13.551Z,12.00
2018-11-12T07:03:18.119Z,11.30
2018-11-12T07:04:22.788Z,7.95
2018-11-12T07:05:28.774Z,8.35
2018-11-12T07:06:34.653Z,10.05
2018-11-12T07:07:40.581Z,10.58
2018-11-12T07:08:45.193Z,7.35
2018-11-12T07:09:50.293Z,10.32
2018-11-12T07:10:59.402Z,6.92
2018-11-12T07:12:06.359Z,8.58
2018-11-12T07:13:11.495Z,13.65
2018-11-12T07:14:16.412Z,9.15
2018-11-12T07:15:22.030Z,11.05
2018-11-12T07:16:26.811Z,7.08
2018-11-12T07:17:31.436Z,10.90
2018-11-12T07:18:37.498Z,7.95
2018-11-12T07:19:53.107Z,7.53
2018-11-12T07:21:08.214Z,5.90
2018-11-12T07:22:14.879Z,9.15
2018-11-12T07:23:20.561Z,9.28
2018-11-12T07:24:26.106Z,8.18
2018-11-12T07:25:32.095Z,7.90
2018-11-12T07:26:36.835Z,10.93
2018-11-12T07:27:41.408Z,12.58
2018-11-12T07:28:46.241Z,9.65
2018-11-12T07:29:53.059Z,12.55
2018-11-12T07:30:58.007Z,9.05
2018-11-12T07:32:02.501Z,10.90
2018-11-12T07:33:08.643Z,12.90
2018-11-12T07:34:15.926Z,11.73
2018-11-12T07:35:20.768Z,9.68
2018-11-12T07:36:25.048Z,9.38
2018-11-12T07:37:29.477Z,12.03
2018-11-12T07:38:34.905Z,16.12
2018-11-12T07:39:39.427Z,8.33
2018-11-12T07:40:44.251Z,10.25
2018-11-12T07:41:49.671Z,14.10
2018-11-12T07:42:54.834Z,10.82
2018-11-12T07:43:59.107Z,13.10
2018-11-12T07:45:09.070Z,11.95
2018-11-12T07:48:21.591Z,13.25
2018-11-12T07:49:26.578Z,10.43
2018-11-12T07:50:31.685Z,13.88
2018-11-12T07:51:35.932Z,11.48
2018-11-12T07:52:41.208Z,13.70
2018-11-12T07:53:49.878Z,16.70
2018-11-12T07:54:56.046Z,16.95
2018-11-12T07:56:01.609Z,17.23
2018-11-12T07:57:06.921Z,18.92
2018-11-12T07:58:13.518Z,13.22
2018-11-12T07:59:19.338Z,12.37
2018-11-12T08:00:29.006Z,12.47
2018-11-12T08:01:37.561Z,12.88
2018-11-12T08:02:43.260Z,13.25
2018-11-12T08:03:49.856Z,21.65
2018-11-12T08:04:54.436Z,17.32
2018-11-12T08:05:59.151Z,17.60
2018-11-12T08:07:12.219Z,12.63
2018-11-12T08:08:37.309Z,14.83
2018-11-12T08:09:58.254Z,11.75
2018-11-12T08:11:13.246Z,15.78
2018-11-12T08:12:21.494Z,11.50
2018-11-12T08:13:32.420Z,13.00
2018-11-12T08:14:45.888Z,7.70
2018-11-12T08:15:55.985Z,8.75
2018-11-12T08:17:01.828Z,16.80
2018-11-12T08:18:06.730Z,9.15
2018-11-12T08:19:15.814Z,10.82
2018-11-12T08:20:26.110Z,12.73
2018-11-12T08:21:31.083Z,11.25
2018-11-12T08:22:35.311Z,15.35
2018-11-12T08:23:40.630Z,17.92
2018-11-12T08:24:45.185Z,19.00
2018-11-12T08:25:49.443Z,17.48
2018-11-12T08:26:54.004Z,24.47
2018-11-12T08:27:58.295Z,18.07
2018-11-12T08:29:02.714Z,18.32
2018-11-12T08:30:11.102Z,15.30
2018-11-12T08:31:15.364Z,14.80
2018-11-12T08:32:21.007Z,16.07
2018-11-12T08:33:25.719Z,15.63
2018-11-12T08:34:30.119Z,18.40
2018-11-12T08:35:34.728Z,16.15
2018-11-12T08:36:39.164Z,13.13
2018-11-12T08:37:45.457Z,14.60
2018-11-12T08:38:51.603Z,15.93
2018-11-12T08:39:57.187Z,11.95
2018-11-12T08:41:03.255Z,12.47
2018-11-12T08:42:07.594Z,16.37
2018-11-12T08:43:12.417Z,12.00
2018-11-12T08:44:17.237Z,13.48
2018-11-12T08:45:21.536Z,19.05
2018-11-12T08:46:25.883Z,23.80
2018-11-12T08:47:44.011Z,17.62
2018-11-12T08:48:49.377Z,16.40
2018-11-12T08:49:54.505Z,21.62
2018-11-12T08:51:00.435Z,13.15
2018-11-12T08:52:05.602Z,14.43
2018-11-12T08:53:09.986Z,14.23
2018-11-12T08:54:17.498Z,21.65
2018-11-12T08:55:26.219Z,14.53
2018-11-12T08:56:33.240Z,11.95
2018-11-12T08:57:37.530Z,13.48
2018-11-12T08:58:43.721Z,11.45
2018-11-12T08:59:48.076Z,15.75
2018-11-12T09:00:52.700Z,12.47
2018-11-12T09:01:57.063Z,16.55
2018-11-12T09:03:01.921Z,12.43
2018-11-12T09:04:06.738Z,12.63
2018-11-12T09:05:13.789Z,14.98
2018-11-12T09:06:18.745Z,13.30
2018-11-12T09:07:23.335Z,17.10
2018-11-12T09:08:28.335Z,13.00
2018-11-12T09:09:33.209Z,12.78
2018-11-12T09:10:37.779Z,14.60
2018-11-12T09:11:43.671Z,12.33
2018-11-12T09:12:48.599Z,20.62
2018-11-12T09:13:53.273Z,16.25
2018-11-12T09:14:59.399Z,16.57
2018-11-12T09:16:04.248Z,13.25
2018-11-12T09:17:09.366Z,16.32
2018-11-12T09:18:16.475Z,13.93
2018-11-12T09:19:23.821Z,14.38
2018-11-12T09:21:31.787Z,13.78
2018-11-12T09:22:36.377Z,11.83
2018-11-12T09:23:41.293Z,10.70
2018-11-12T09:24:45.649Z,11.05
2018-11-12T09:25:50.843Z,15.78
2018-11-12T09:26:55.510Z,12.80
2018-11-12T09:28:01.310Z,11.97
2018-11-12T09:29:06.198Z,11.73
2018-11-12T09:30:19.786Z,13.75
2018-11-12T09:31:26.209Z,15.38
2018-11-12T09:32:29.466Z,12.28
2018-11-12T09:33:34.093Z,16.07
2018-11-12T09:34:38.602Z,21.10
2018-11-12T09:35:43.185Z,18.57
2018-11-12T09:36:48.720Z,13.30
2018-11-12T09:37:54.742Z,15.63
2018-11-12T09:38:59.863Z,12.68
2018-11-12T09:40:04.246Z,16.93
2018-11-12T09:41:09.073Z,17.48
2018-11-12T09:42:13.573Z,22.10
2018-11-12T09:43:19.045Z,17.27
2018-11-12T09:44:24.958Z,21.40
2018-11-12T09:45:32.463Z,16.80
2018-11-12T09:46:37.679Z,24.52
2018-11-12T09:47:43.213Z,30.25
2018-11-12T09:48:47.883Z,23.22
2018-11-12T09:49:52.705Z,22.45
2018-11-12T09:50:57.290Z,29.90
2018-11-12T09:52:01.826Z,27.70
2018-11-12T09:53:06.778Z,20.15
2018-11-12T09:54:14.199Z,22.40
2018-11-12T09:55:19.180Z,28.60
2018-11-12T09:56:24.559Z,23.40
2018-11-12T09:57:29.197Z,29.50
2018-11-12T09:58:33.532Z,25.43
2018-11-12T09:59:38.797Z,20.10
2018-11-12T10:00:44.675Z,22.67
2018-11-12T10:01:49.511Z,22.00
2018-11-12T10:02:57.962Z,21.97
2018-11-12T10:04:12.733Z,17.90
2018-11-12T10:05:18.191Z,15.23
2018-11-12T10:06:23.206Z,15.40
2018-11-12T10:07:27.543Z,17.80
2018-11-12T10:08:35.337Z,12.23
2018-11-12T10:09:39.875Z,13.25
2018-11-12T10:10:49.670Z,10.40
2018-11-12T10:12:09.152Z,9.55
2018-11-12T10:13:20.711Z,17.87
2018-11-12T10:14:26.384Z,9.18
2018-11-12T10:15:33.679Z,12.00
2018-11-12T10:16:40.265Z,11.57
2018-11-12T10:17:47.849Z,12.40
2018-11-12T10:18:58.377Z,9.60
2018-11-12T10:20:07.547Z,13.13
2018-11-12T10:21:12.759Z,13.88
2018-11-12T10:22:17.718Z,8.23
2018-11-12T10:23:22.984Z,8.40
2018-11-12T10:24:27.348Z,11.65
2018-11-12T10:25:34.181Z,8.13
2018-11-12T10:26:39.659Z,12.28
2018-11-12T10:27:47.581Z,9.70
2018-11-12T10:28:51.978Z,10.63
2018-11-12T10:29:58.413Z,11.00
2018-11-12T10:31:03.402Z,7.28
2018-11-12T10:32:09.644Z,8.18
2018-11-12T10:33:14.199Z,6.08
2018-11-12T10:34:18.568Z,11.75
2018-11-12T10:35:23.757Z,8.18
2018-11-12T10:36:29.084Z,9.05
2018-11-12T10:37:37.187Z,8.30
2018-11-12T10:38:48.357Z,6.92
2018-11-12T10:39:57.458Z,10.53
2018-11-12T10:41:02.424Z,8.78
2018-11-12T10:42:15.693Z,11.65
2018-11-12T10:43:31.722Z,7.25
2018-11-12T10:44:44.874Z,8.45
2018-11-12T10:45:49.429Z,10.23
2018-11-12T10:47:08.259Z,10.90
2018-11-12T10:48:19.861Z,8.10
2018-11-12T10:49:26.024Z,8.43
2018-11-12T10:50:31.159Z,8.75
2018-11-12T10:51:35.769Z,7.80
2018-11-12T10:52:40.501Z,9.83
2018-11-12T10:53:56.222Z,9.88
2018-11-12T10:55:04.901Z,8.43
2018-11-12T10:56:10.761Z,10.00
2018-11-12T10:57:29.658Z,11.95
2018-11-12T10:58:36.270Z,9.85
2018-11-12T10:59:45.662Z,6.75
2018-11-12T11:01:06.558Z,11.43
2018-11-12T11:02:30.621Z,15.75
2018-11-12T11:06:05.467Z,9.40
2018-11-12T11:07:46.603Z,8.78
2018-11-12T11:08:52.843Z,6.30
2018-11-12T11:10:03.135Z,8.58
2018-11-12T11:11:17.443Z,9.55
2018-11-12T11:12:30.444Z,9.03
2018-11-12T11:13:36.953Z,8.93
2018-11-12T11:14:50.935Z,6.55
2018-11-12T11:16:08.998Z,5.70
2018-11-12T11:17:14.624Z,7.50
2018-11-12T11:18:19.887Z,6.75
2018-11-12T11:19:25.600Z,11.73
2018-11-12T11:20:30.521Z,8.43
2018-11-12T11:21:35.301Z,7.40
2018-11-12T11:22:41.331Z,5.70
2018-11-12T11:23:47.426Z,6.78
2018-11-12T11:24:53.677Z,13.50
2018-11-12T11:25:58.531Z,18.90
2018-11-12T11:27:03.921Z,18.10
2018-11-12T11:28:10.164Z,30.02
2018-11-12T11:29:16.559Z,36.80
2018-11-12T11:30:23.357Z,56.02
2018-11-12T11:31:29.108Z,73.30
2018-11-12T11:32:35.769Z,40.95
2018-11-12T11:33:42.071Z,21.75
2018-11-12T11:34:46.900Z,13.95
2018-11-12T11:35:51.894Z,12.40
2018-11-12T11:36:56.693Z,20.27
2018-11-12T11:38:01.096Z,15.75
2018-11-12T11:39:07.937Z,8.98
2018-11-12T11:40:16.645Z,8.90
2018-11-12T11:41:22.418Z,20.90
2018-11-12T11:42:29.186Z,15.65
2018-11-12T11:43:33.540Z,19.02
2018-11-12T11:44:38.283Z,12.00
2018-11-12T11:45:42.681Z,8.63
2018-11-12T11:46:49.117Z,13.20
2018-11-12T11:47:59.875Z,8.80
2018-11-12T11:49:06.249Z,14.03
2018-11-12T11:50:15.191Z,12.07
2018-11-12T11:51:20.890Z,14.28
2018-11-12T11:52:25.899Z,12.37
2018-11-12T11:53:30.896Z,9.28
2018-11-12T11:54:35.801Z,7.50
2018-11-12T11:55:45.000Z,7.78
2018-11-12T11:58:23.643Z,6.65
2018-11-12T11:59:31.527Z,7.20
2018-11-12T12:00:42.557Z,8.85
2018-11-12T12:01:47.481Z,7.67
2018-11-12T12:02:54.317Z,7.83
2018-11-12T12:04:00.515Z,9.83
2018-11-12T12:05:07.995Z,7.22
2018-11-12T12:06:13.997Z,5.42
2018-11-12T12:07:19.807Z,6.85
2018-11-12T12:08:24.134Z,7.70
2018-11-12T12:09:29.470Z,9.08
2018-11-12T12:10:40.697Z,6.40
2018-11-12T12:11:45.298Z,5.75
2018-11-12T12:12:54.246Z,8.35
2018-11-12T12:13:59.891Z,7.45
2018-11-12T12:15:15.703Z,7.25
2018-11-12T12:16:20.494Z,9.33
2018-11-12T12:17:27.452Z,11.45
2018-11-12T12:18:32.818Z,11.35
2018-11-12T12:19:40.982Z,11.22
2018-11-12T12:20:49.343Z,18.73
2018-11-12T12:21:55.868Z,7.83
2018-11-12T12:23:00.432Z,8.50
2018-11-12T12:24:05.404Z,5.92
2018-11-12T12:25:13.339Z,7.90
2018-11-12T12:26:22.359Z,14.18
2018-11-12T12:27:26.924Z,7.05
2018-11-12T12:28:31.478Z,8.35
2018-11-12T12:29:36.389Z,6.58
2018-11-12T12:30:41.637Z,8.70
2018-11-12T12:31:46.339Z,13.30
2018-11-12T12:32:53.699Z,8.48
2018-11-12T12:33:59.170Z,9.15
2018-11-12T12:35:07.103Z,8.70
2018-11-12T12:36:12.042Z,8.13
2018-11-12T12:37:17.025Z,10.25
2018-11-12T12:38:23.224Z,7.50
2018-11-12T12:39:28.675Z,11.05
2018-11-12T12:40:35.031Z,8.60
2018-11-12T12:41:42.632Z,7.62
2018-11-12T12:42:47.188Z,6.28
2018-11-12T12:43:53.025Z,8.33
2018-11-12T12:44:59.010Z,6.90
2018-11-12T12:46:04.377Z,7.90
2018-11-12T12:47:11.258Z,9.55
2018-11-12T12:48:15.522Z,14.43
2018-11-12T12:49:20.061Z,7.20
2018-11-12T12:50:27.830Z,9.98
2018-11-12T12:51:32.364Z,10.58
2018-11-12T12:52:38.257Z,8.73
2018-11-12T12:53:44.374Z,11.85
2018-11-12T12:54:48.870Z,12.00
2018-11-12T12:55:54.505Z,9.03
2018-11-12T12:56:58.988Z,17.32
2018-11-12T12:58:05.776Z,7.28
2018-11-12T12:59:10.349Z,10.55
2018-11-12T13:00:25.339Z,7.30
2018-11-12T13:01:31.554Z,12.65
2018-11-12T13:02:36.269Z,9.03
2018-11-12T13:04:09.216Z,6.92
2018-11-12T13:05:13.553Z,10.80
2018-11-12T13:06:20.410Z,6.75
2018-11-12T13:07:41.080Z,9.45
2018-11-12T13:08:49.239Z,6.95
2018-11-12T13:10:00.438Z,6.17
2018-11-12T13:11:53.599Z,6.97
2018-11-12T13:14:34.538Z,10.08
2018-11-12T13:16:31.853Z,10.78
2018-11-12T13:18:14.269Z,15.63
2018-11-12T13:19:28.404Z,13.22
2018-11-12T13:20:35.790Z,10.08
2018-11-12T13:21:46.627Z,15.28
2018-11-12T13:23:24.771Z,5.67
2018-11-12T13:24:30.160Z,10.05
2018-11-12T13:25:36.778Z,7.65
2018-11-12T13:26:43.670Z,8.80
2018-11-12T13:27:52.937Z,12.60
2018-11-12T13:28:59.560Z,26.42
2018-11-12T13:30:04.755Z,15.45
2018-11-12T13:31:10.133Z,14.85
2018-11-12T13:32:17.832Z,17.00
2018-11-12T13:33:24.231Z,13.40
2018-11-12T13:34:28.968Z,12.37
2018-11-12T13:35:34.697Z,13.05
2018-11-12T13:37:00.554Z,12.93
2018-11-12T13:38:07.729Z,14.70
2018-11-12T13:39:13.332Z,15.53
2018-11-12T13:40:31.141Z,12.43
2018-11-12T13:41:35.706Z,16.17
2018-11-12T13:42:43.489Z,11.30
2018-11-12T13:43:49.691Z,16.97
2018-11-12T13:44:54.750Z,10.93
2018-11-12T13:46:00.039Z,11.05
2018-11-12T13:47:05.136Z,15.58
2018-11-12T13:48:10.885Z,16.75
2018-11-12T13:49:17.620Z,16.20
2018-11-12T13:50:23.493Z,17.23
2018-11-12T13:51:29.512Z,17.07
2018-11-12T13:52:35.330Z,16.80
2018-11-12T13:53:43.345Z,14.18
2018-11-12T13:54:51.503Z,14.05
2018-11-12T13:55:56.280Z,14.73
2018-11-12T13:57:02.742Z,13.20
2018-11-12T13:58:07.428Z,17.07
2018-11-12T13:59:12.297Z,16.93
2018-11-12T14:00:26.582Z,17.57
2018-11-12T14:01:37.974Z,18.92
2018-11-12T14:02:44.106Z,15.63
2018-11-12T14:03:50.243Z,15.65
2018-11-12T14:04:55.833Z,15.63
2018-11-12T14:06:01.866Z,18.20
2018-11-12T14:07:08.822Z,21.33
2018-11-12T14:08:13.825Z,16.45
2018-11-12T14:09:37.369Z,22.37
2018-11-12T14:10:42.338Z,18.87
2018-11-12T14:11:46.639Z,26.27
2018-11-12T14:12:54.699Z,20.52
2018-11-12T14:14:00.001Z,18.82
2018-11-12T14:15:07.503Z,20.25
2018-11-12T14:16:13.819Z,20.15
2018-11-12T14:17:19.336Z,17.15
2018-11-12T14:18:24.384Z,22.58
2018-11-12T14:19:28.778Z,19.62
2018-11-12T14:20:34.545Z,21.15
2018-11-12T14:21:39.710Z,17.17
2018-11-12T14:22:44.883Z,19.42
2018-11-12T14:23:51.559Z,18.52
2018-11-12T14:24:58.652Z,19.05
2018-11-12T14:26:16.523Z,28.95
2018-11-12T14:27:29.577Z,17.30
2018-11-12T14:28:48.231Z,24.57
2018-11-12T14:29:53.837Z,25.15
2018-11-12T14:31:01.377Z,22.00
2018-11-12T14:32:06.770Z,18.05
2018-11-12T14:33:11.105Z,22.82
2018-11-12T14:34:15.833Z,20.00
2018-11-12T14:35:22.179Z,20.27
2018-11-12T14:36:27.831Z,20.85
2018-11-12T14:37:34.259Z,21.37